sensor_id;sensor_type;location;lat;lon;timestamp;pressure;altitude;pressure_sealevel;temperature;humidity
50696;BME280;36665;51.786;21.594;2023-03-21T00:02:02;94993.33;;;7.76;64.84
50696;BME280;36665;51.786;21.594;2023-03-21T00:10:25;94978.27;;;7.73;64.94
50696;BME280;36665;51.786;21.594;2023-03-21T00:19:03;94978.16;;;7.72;65.09
50696;BME280;36665;51.786;21.594;2023-03-21T00:27:28;94993.30;;;7.75;65.18
50696;BME280;36665;51.786;21.594;2023-03-21T00:36:11;94971.52;;;7.70;65.15
50696;BME280;36665;51.786;21.594;2023-03-21T00:44:35;94937.98;;;7.62;65.09
50696;BME280;36665;51.786;21.594;2023-03-21T00:52:58;94931.57;;;7.60;65.31
50696;BME280;36665;51.786;21.594;2023-03-21T01:01:21;94937.54;;;7.61;65.41
50696;BME280;36665;51.786;21.594;2023-03-21T01:09:44;94915.64;;;7.55;65.48
50696;BME280;36665;51.786;21.594;2023-03-21T01:18:08;94868.08;;;7.42;65.33
50696;BME280;36665;51.786;21.594;2023-03-21T01:26:31;94821.89;;;7.30;65.36
50696;BME280;36665;51.786;21.594;2023-03-21T01:34:54;94784.13;;;7.19;65.26
50696;BME280;36665;51.786;21.594;2023-03-21T01:43:25;94760.97;;;7.14;65.21
50696;BME280;36665;51.786;21.594;2023-03-21T01:51:53;94754.58;;;7.12;65.39
50696;BME280;36665;51.786;21.594;2023-03-21T02:00:26;94760.25;;;7.14;65.34
50696;BME280;36665;51.786;21.594;2023-03-21T02:09:01;94746.98;;;7.11;65.42
50696;BME280;36665;51.786;21.594;2023-03-21T02:17:42;94730.40;;;7.05;65.62
50696;BME280;36665;51.786;21.594;2023-03-21T02:43:53;94722.77;;;7.02;65.88
50696;BME280;36665;51.786;21.594;2023-03-21T02:52:23;94718.55;;;7.01;65.82
50696;BME280;36665;51.786;21.594;2023-03-21T03:01:02;94701.47;;;6.96;66.00
50696;BME280;36665;51.786;21.594;2023-03-21T03:09:53;94689.77;;;6.92;65.79
50696;BME280;36665;51.786;21.594;2023-03-21T03:27:07;94674.95;;;6.88;66.23
50696;BME280;36665;51.786;21.594;2023-03-21T03:35:32;94627.93;;;6.77;66.17
50696;BME280;36665;51.786;21.594;2023-03-21T03:43:58;94597.12;;;6.67;66.30
50696;BME280;36665;51.786;21.594;2023-03-21T03:52:30;94573.19;;;6.61;66.15
50696;BME280;36665;51.786;21.594;2023-03-21T04:01:05;94538.28;;;6.52;66.38
50696;BME280;36665;51.786;21.594;2023-03-21T04:09:29;94529.92;;;6.50;66.22
50696;BME280;36665;51.786;21.594;2023-03-21T04:18:05;94543.81;;;6.52;66.39
50696;BME280;36665;51.786;21.594;2023-03-21T04:26:28;94568.05;;;6.59;66.53
50696;BME280;36665;51.786;21.594;2023-03-21T04:35:15;94575.36;;;6.60;66.55
50696;BME280;36665;51.786;21.594;2023-03-21T04:43:38;94577.88;;;6.61;66.65
50696;BME280;36665;51.786;21.594;2023-03-21T04:52:01;94582.14;;;6.62;66.73
50696;BME280;36665;51.786;21.594;2023-03-21T05:00:25;94581.33;;;6.61;66.97
50696;BME280;36665;51.786;21.594;2023-03-21T05:08:48;94577.42;;;6.61;66.76
50696;BME280;36665;51.786;21.594;2023-03-21T05:17:11;94568.72;;;6.58;66.58
50696;BME280;36665;51.786;21.594;2023-03-21T05:25:45;94559.89;;;6.55;66.73
50696;BME280;36665;51.786;21.594;2023-03-21T05:34:17;94587.84;;;6.62;66.96
50696;BME280;36665;51.786;21.594;2023-03-21T05:42:41;94623.18;;;6.71;66.93
50696;BME280;36665;51.786;21.594;2023-03-21T05:51:09;94636.89;;;6.74;66.96
50696;BME280;36665;51.786;21.594;2023-03-21T05:59:33;94662.23;;;6.82;67.13
50696;BME280;36665;51.786;21.594;2023-03-21T06:07:56;94700.56;;;6.91;67.20
50696;BME280;36665;51.786;21.594;2023-03-21T06:16:20;94736.66;;;7.00;67.27
50696;BME280;36665;51.786;21.594;2023-03-21T06:24:44;94798.39;;;7.16;67.50
50696;BME280;36665;51.786;21.594;2023-03-21T06:33:07;94818.77;;;7.21;67.47
50696;BME280;36665;51.786;21.594;2023-03-21T06:41:31;94821.30;;;7.22;67.79
50696;BME280;36665;51.786;21.594;2023-03-21T06:49:57;94886.89;;;7.39;67.77
50696;BME280;36665;51.786;21.594;2023-03-21T06:58:21;94940.88;;;7.52;67.99
50696;BME280;36665;51.786;21.594;2023-03-21T07:06:45;94929.52;;;7.49;67.98
50696;BME280;36665;51.786;21.594;2023-03-21T07:15:08;94942.48;;;7.51;68.02
50696;BME280;36665;51.786;21.594;2023-03-21T07:23:32;94981.28;;;7.61;68.02
50696;BME280;36665;51.786;21.594;2023-03-21T07:31:56;95014.17;;;7.70;68.08
50696;BME280;36665;51.786;21.594;2023-03-21T07:40:19;95009.46;;;7.69;67.99
50696;BME280;36665;51.786;21.594;2023-03-21T07:48:43;95025.21;;;7.72;68.32
50696;BME280;36665;51.786;21.594;2023-03-21T07:57:05;95083.80;;;7.87;68.45
50696;BME280;36665;51.786;21.594;2023-03-21T08:05:33;95129.27;;;7.99;68.34
50696;BME280;36665;51.786;21.594;2023-03-21T08:13:58;95173.77;;;8.10;68.45
50696;BME280;36665;51.786;21.594;2023-03-21T08:22:20;95177.48;;;8.09;68.38
50696;BME280;36665;51.786;21.594;2023-03-21T08:30:43;95171.73;;;8.08;68.47
50696;BME280;36665;51.786;21.594;2023-03-21T08:39:06;95209.45;;;8.18;68.50
50696;BME280;36665;51.786;21.594;2023-03-21T08:47:29;95276.73;;;8.35;68.76
50696;BME280;36665;51.786;21.594;2023-03-21T08:55:53;95347.14;;;8.53;68.91
50696;BME280;36665;51.786;21.594;2023-03-21T09:04:16;95397.27;;;8.65;68.61
50696;BME280;36665;51.786;21.594;2023-03-21T09:12:41;95377.16;;;8.60;68.85
50696;BME280;36665;51.786;21.594;2023-03-21T09:21:08;95339.31;;;8.50;68.87
50696;BME280;36665;51.786;21.594;2023-03-21T09:29:37;95380.42;;;8.60;68.73
50696;BME280;36665;51.786;21.594;2023-03-21T09:38:00;95473.39;;;8.85;69.11
50696;BME280;36665;51.786;21.594;2023-03-21T09:55:24;95765.65;;;9.59;69.11
50696;BME280;36665;51.786;21.594;2023-03-21T10:03:54;95695.09;;;9.41;69.08
50696;BME280;36665;51.786;21.594;2023-03-21T10:12:21;95650.23;;;9.29;69.17
50696;BME280;36665;51.786;21.594;2023-03-21T10:20:44;95592.41;;;9.14;69.19
50696;BME280;36665;51.786;21.594;2023-03-21T10:29:09;95631.29;;;9.24;69.26
50696;BME280;36665;51.786;21.594;2023-03-21T10:37:33;95804.82;;;9.69;69.22
50696;BME280;36665;51.786;21.594;2023-03-21T10:45:57;95936.89;;;10.04;69.44
50696;BME280;36665;51.786;21.594;2023-03-21T10:54:25;95968.80;;;10.11;69.37
50696;BME280;36665;51.786;21.594;2023-03-21T11:02:51;96038.81;;;10.28;69.52
50696;BME280;36665;51.786;21.594;2023-03-21T11:11:20;96092.88;;;10.42;69.49
50696;BME280;36665;51.786;21.594;2023-03-21T11:19:52;96144.07;;;10.55;69.71
50696;BME280;36665;51.786;21.594;2023-03-21T11:28:32;96143.32;;;10.54;69.52
50696;BME280;36665;51.786;21.594;2023-03-21T11:37:00;96116.89;;;10.47;69.63
50696;BME280;36665;51.786;21.594;2023-03-21T11:45:29;96113.23;;;10.48;69.60
50696;BME280;36665;51.786;21.594;2023-03-21T12:03:25;96223.10;;;10.74;69.34
50696;BME280;36665;51.786;21.594;2023-03-21T12:21:05;96145.88;;;10.54;69.63
50696;BME280;36665;51.786;21.594;2023-03-21T12:38:40;95984.77;;;10.13;69.38
50696;BME280;36665;51.786;21.594;2023-03-21T12:47:22;95938.26;;;10.01;69.49
50696;BME280;36665;51.786;21.594;2023-03-21T12:55:46;95857.10;;;9.81;69.46
50696;BME280;36665;51.786;21.594;2023-03-21T13:13:38;95684.28;;;9.35;69.14
50696;BME280;36665;51.786;21.594;2023-03-21T13:30:43;95706.02;;;9.42;69.14
50696;BME280;36665;51.786;21.594;2023-03-21T13:39:17;95683.52;;;9.35;69.28
50696;BME280;36665;51.786;21.594;2023-03-21T13:47:49;95638.13;;;9.24;69.18
50696;BME280;36665;51.786;21.594;2023-03-21T14:04:39;95611.66;;;9.17;69.02
50696;BME280;36665;51.786;21.594;2023-03-21T14:13:23;95611.37;;;9.17;69.10
50696;BME280;36665;51.786;21.594;2023-03-21T14:21:49;95641.08;;;9.24;69.27
50696;BME280;36665;51.786;21.594;2023-03-21T14:30:21;95667.40;;;9.31;69.25
50696;BME280;36665;51.786;21.594;2023-03-21T14:47:24;95686.27;;;9.36;68.90
50696;BME280;36665;51.786;21.594;2023-03-21T14:55:58;95711.26;;;9.43;68.86
50696;BME280;36665;51.786;21.594;2023-03-21T15:04:22;95689.02;;;9.38;69.10
50696;BME280;36665;51.786;21.594;2023-03-21T15:12:54;95678.05;;;9.34;69.15
50696;BME280;36665;51.786;21.594;2023-03-21T15:21:27;95686.02;;;9.37;69.22
50696;BME280;36665;51.786;21.594;2023-03-21T15:29:52;95682.98;;;9.34;69.18
50696;BME280;36665;51.786;21.594;2023-03-21T15:38:40;95665.92;;;9.31;69.05
50696;BME280;36665;51.786;21.594;2023-03-21T15:47:07;95648.15;;;9.26;69.15
50696;BME280;36665;51.786;21.594;2023-03-21T15:55:43;95648.02;;;9.26;69.09
50696;BME280;36665;51.786;21.594;2023-03-21T16:04:12;95616.63;;;9.18;69.04
50696;BME280;36665;51.786;21.594;2023-03-21T16:12:35;95572.06;;;9.07;68.95
50696;BME280;36665;51.786;21.594;2023-03-21T16:20:58;95526.05;;;8.95;69.06
50696;BME280;36665;51.786;21.594;2023-03-21T16:29:21;95478.00;;;8.82;68.86
50696;BME280;36665;51.786;21.594;2023-03-21T16:37:44;95453.98;;;8.76;68.81
50696;BME280;36665;51.786;21.594;2023-03-21T16:46:18;95424.40;;;8.68;68.93
50696;BME280;36665;51.786;21.594;2023-03-21T16:54:42;95348.77;;;8.48;68.97
50696;BME280;36665;51.786;21.594;2023-03-21T17:03:13;95258.61;;;8.25;68.93
50696;BME280;36665;51.786;21.594;2023-03-21T17:11:37;95186.15;;;8.06;68.93
50696;BME280;36665;51.786;21.594;2023-03-21T17:20:18;95143.88;;;7.94;68.75
50696;BME280;36665;51.786;21.594;2023-03-21T17:28:41;95063.96;;;7.75;68.76
50696;BME280;36665;51.786;21.594;2023-03-21T17:37:04;94948.16;;;7.45;68.72
50696;BME280;36665;51.786;21.594;2023-03-21T17:45:28;94842.80;;;7.17;68.47
50696;BME280;36665;51.786;21.594;2023-03-21T17:53:51;94750.52;;;6.94;68.58
50696;BME280;36665;51.786;21.594;2023-03-21T18:02:15;94607.67;;;6.55;68.28
50696;BME280;36665;51.786;21.594;2023-03-21T18:10:40;94439.64;;;6.11;68.30
50696;BME280;36665;51.786;21.594;2023-03-21T18:19:04;94340.08;;;5.84;68.09
50696;BME280;36665;51.786;21.594;2023-03-21T18:27:28;94252.45;;;5.61;68.00
50696;BME280;36665;51.786;21.594;2023-03-21T18:35:55;94125.85;;;5.28;68.08
50696;BME280;36665;51.786;21.594;2023-03-21T18:44:22;94019.64;;;5.00;68.18
50696;BME280;36665;51.786;21.594;2023-03-21T18:52:47;93928.64;;;4.76;67.96
50696;BME280;36665;51.786;21.594;2023-03-21T19:01:11;93850.39;;;4.55;67.94
50696;BME280;36665;51.786;21.594;2023-03-21T19:09:34;93813.23;;;4.46;67.90
50696;BME280;36665;51.786;21.594;2023-03-21T19:18:18;93796.69;;;4.41;68.07
50696;BME280;36665;51.786;21.594;2023-03-21T19:32:18;93716.01;;;4.22;67.88
50696;BME280;36665;51.786;21.594;2023-03-21T19:40:41;93654.50;;;4.04;67.78
50696;BME280;36665;51.786;21.594;2023-03-21T19:49:05;93579.68;;;3.84;68.01
50696;BME280;36665;51.786;21.594;2023-03-21T19:57:29;93484.84;;;3.58;67.86
50696;BME280;36665;51.786;21.594;2023-03-21T20:06:01;93398.36;;;3.34;67.79
50696;BME280;36665;51.786;21.594;2023-03-21T20:14:24;93357.83;;;3.23;67.69
50696;BME280;36665;51.786;21.594;2023-03-21T20:22:48;93308.52;;;3.10;67.90
50696;BME280;36665;51.786;21.594;2023-03-21T20:31:30;93234.41;;;2.90;67.89
50696;BME280;36665;51.786;21.594;2023-03-21T20:39:53;93183.18;;;2.76;67.55
50696;BME280;36665;51.786;21.594;2023-03-21T20:48:16;93131.25;;;2.62;67.75
50696;BME280;36665;51.786;21.594;2023-03-21T20:56:39;93078.11;;;2.47;67.65
50696;BME280;36665;51.786;21.594;2023-03-21T21:05:03;93061.73;;;2.43;67.82
50696;BME280;36665;51.786;21.594;2023-03-21T21:13:52;93049.35;;;2.40;67.62
50696;BME280;36665;51.786;21.594;2023-03-21T21:22:16;93012.98;;;2.31;67.88
50696;BME280;36665;51.786;21.594;2023-03-21T21:30:39;92952.94;;;2.14;67.63
50696;BME280;36665;51.786;21.594;2023-03-21T21:39:04;92908.02;;;2.02;67.52
50696;BME280;36665;51.786;21.594;2023-03-21T21:47:28;92864.29;;;1.90;67.52
50696;BME280;36665;51.786;21.594;2023-03-21T21:55:51;92801.08;;;1.73;67.46
50696;BME280;36665;51.786;21.594;2023-03-21T22:04:15;92743.69;;;1.58;67.46
50696;BME280;36665;51.786;21.594;2023-03-21T22:12:43;92670.23;;;1.38;67.54
50696;BME280;36665;51.786;21.594;2023-03-21T22:21:06;92626.21;;;1.27;67.59
50696;BME280;36665;51.786;21.594;2023-03-21T22:29:29;92614.36;;;1.23;67.57
50696;BME280;36665;51.786;21.594;2023-03-21T22:37:52;92559.89;;;1.08;67.70
50696;BME280;36665;51.786;21.594;2023-03-21T22:46:16;92500.00;;;0.92;67.55
50696;BME280;36665;51.786;21.594;2023-03-21T22:54:39;92439.91;;;0.76;67.52
50696;BME280;36665;51.786;21.594;2023-03-21T23:03:02;92336.54;;;0.46;67.28
50696;BME280;36665;51.786;21.594;2023-03-21T23:11:25;92253.66;;;0.23;67.41
50696;BME280;36665;51.786;21.594;2023-03-21T23:19:48;92227.27;;;0.17;67.39
50696;BME280;36665;51.786;21.594;2023-03-21T23:28:11;92198.81;;;0.09;67.41
50696;BME280;36665;51.786;21.594;2023-03-21T23:36:34;92157.45;;;-0.02;67.25
50696;BME280;36665;51.786;21.594;2023-03-21T23:44:57;92113.31;;;-0.15;67.39
50696;BME280;36665;51.786;21.594;2023-03-21T23:53:20;92108.33;;;-0.16;67.29
